createdAt,value
2023-05-08T00:26:25.350Z,9.97
2023-05-08T00:41:17.443Z,10.07
2023-05-08T00:56:10.399Z,11.60
2023-05-08T01:11:23.814Z,11.13
2023-05-08T01:26:38.863Z,10.78
2023-05-08T01:41:36.328Z,12.28
2023-05-08T01:56:32.162Z,10.37
2023-05-08T02:26:37.159Z,12.50
2023-05-08T02:41:28.840Z,16.21
2023-05-08T03:11:28.377Z,14.83
2023-05-08T03:26:21.173Z,15.23
2023-05-08T03:41:13.343Z,13.04
2023-05-08T03:56:06.597Z,13.27
2023-05-08T04:25:52.508Z,17.28
2023-05-08T05:10:30.302Z,19.64
2023-05-08T05:25:22.895Z,19.14
2023-05-08T05:40:15.528Z,23.72
2023-05-08T05:55:08.374Z,25.26
2023-05-08T06:10:02.568Z,31.88
2023-05-08T06:39:50.514Z,26.87
2023-05-08T07:39:19.578Z,28.74
2023-05-08T07:54:12.435Z,25.59
2023-05-08T08:09:06.354Z,25.94
2023-05-08T08:23:58.890Z,24.00
2023-05-08T08:38:51.925Z,23.07
2023-05-08T08:53:44.887Z,23.39
2023-05-08T09:08:37.741Z,25.66
2023-05-08T09:23:31.500Z,19.46
2023-05-08T09:38:32.703Z,21.79
2023-05-08T09:53:32.960Z,21.33
2023-05-08T10:08:27.110Z,20.37
2023-05-08T10:23:19.329Z,20.92
2023-05-08T10:38:11.814Z,22.04
2023-05-08T10:53:24.894Z,18.54
2023-05-08T11:08:25.928Z,16.08
2023-05-08T11:23:26.306Z,14.91
2023-05-08T11:38:25.393Z,14.59
2023-05-08T11:53:20.000Z,13.00
2023-05-08T12:08:12.548Z,13.15
2023-05-08T12:23:05.457Z,11.46
2023-05-08T12:38:00.810Z,11.64
2023-05-08T12:53:03.995Z,10.10
2023-05-08T13:07:59.807Z,10.35
2023-05-08T13:22:51.938Z,8.74
2023-05-08T13:37:43.642Z,10.51
2023-05-08T13:52:36.268Z,10.13
2023-05-08T14:07:29.680Z,7.56
2023-05-08T14:22:20.981Z,8.04
2023-05-08T14:37:13.911Z,7.69
2023-05-08T14:52:06.069Z,9.66
2023-05-08T15:06:58.193Z,8.91
2023-05-08T15:21:51.210Z,10.48
2023-05-08T15:36:43.040Z,11.81
2023-05-08T15:51:34.562Z,11.15
2023-05-08T16:06:27.083Z,20.69
2023-05-08T16:21:18.594Z,13.56
2023-05-08T16:36:10.746Z,16.81
2023-05-08T16:51:04.070Z,15.51
2023-05-08T17:05:57.048Z,15.16
2023-05-08T17:20:47.496Z,9.55
2023-05-08T18:05:20.442Z,9.46
2023-05-08T18:20:13.290Z,10.80
2023-05-08T18:35:05.720Z,11.61
2023-05-08T18:49:59.860Z,12.46
2023-05-08T19:49:29.188Z,13.32
2023-05-08T20:19:15.310Z,13.64
2023-05-08T20:34:06.807Z,13.13
2023-05-08T20:49:00.971Z,13.68
2023-05-08T21:03:55.762Z,16.74
2023-05-08T21:18:47.244Z,14.64
2023-05-08T21:33:39.363Z,15.09
2023-05-08T21:48:31.535Z,15.61
2023-05-08T22:03:23.323Z,16.37
2023-05-08T22:18:15.748Z,18.96
2023-05-08T22:33:07.946Z,17.33
2023-05-08T22:48:00.510Z,16.86
2023-05-08T23:02:52.192Z,18.08
2023-05-08T23:17:44.326Z,17.21
2023-05-08T23:32:36.481Z,14.58
2023-05-08T23:47:28.168Z,15.60
